Time;durP1;ratioP1;P1;durP2;ratioP2;P2;SDS_P1;SDS_P2;PMS_P1;PMS_P2;Temp;Humidity;BMP_temperature;BMP_pressure;BME280_temperature;BME280_humidity;BME280_pressure;Samples;Min_cycle;Max_cycle;Signal;HPM_P1;HPM_P2
2023/09/21 00:00:47;;;;;;;;;1.00;1.00;;;;;;;;5070562;28;8757;-82
2023/09/21 00:03:14;;;;;;;;;1.20;1.20;;;;;;;;5071950;28;8868;-81
2023/09/21 00:05:46;;;;;;;;;1.20;1.20;;;;;;;;5071022;28;9631;-82
2023/09/21 00:08:13;;;;;;;;;4.00;2.40;;;;;;;;5072167;28;8871;-83
2023/09/21 00:10:41;;;;;;;;;2.80;1.00;;;;;;;;5072203;28;8943;-82
2023/09/21 00:13:09;;;;;;;;;2.00;2.00;;;;;;;;5073768;28;8856;-79
2023/09/21 00:15:36;;;;;;;;;2.40;2.20;;;;;;;;5073512;28;8903;-87
2023/09/21 00:18:05;;;;;;;;;1.20;1.20;;;;;;;;5074658;28;8866;-82
2023/09/21 00:20:36;;;;;;;;;2.00;2.00;;;;;;;;5076148;28;8832;-82
2023/09/21 00:23:06;;;;;;;;;2.00;2.00;;;;;;;;5078254;28;8868;-83
2023/09/21 00:25:33;;;;;;;;;1.00;1.00;;;;;;;;5074392;28;8859;-79
2023/09/21 00:28:07;;;;;;;;;1.20;1.20;;;;;;;;5078016;28;9042;-79
2023/09/21 00:30:34;;;;;;;;;2.00;0.20;;;;;;;;5073125;28;9568;-89
2023/09/21 00:33:02;;;;;;;;;0.00;0.00;;;;;;;;5071051;28;8852;-83
2023/09/21 00:35:29;;;;;;;;;3.00;1.80;;;;;;;;5074547;28;8881;-80
2023/09/21 00:37:57;;;;;;;;;2.20;1.80;;;;;;;;5073299;28;8887;-90
2023/09/21 00:40:25;;;;;;;;;3.00;3.00;;;;;;;;5069985;28;8840;-82
2023/09/21 00:42:52;;;;;;;;;2.00;2.00;;;;;;;;5069861;28;8840;-87
2023/09/21 00:45:21;;;;;;;;;4.60;2.20;;;;;;;;5071919;28;8853;-78
2023/09/21 00:47:51;;;;;;;;;2.00;2.00;;;;;;;;5072149;28;8844;-84
2023/09/21 00:50:22;;;;;;;;;1.40;1.40;;;;;;;;5071211;28;8845;-79
2023/09/21 00:52:52;;;;;;;;;4.40;2.80;;;;;;;;5070423;28;8870;-90
2023/09/21 00:55:23;;;;;;;;;2.80;2.80;;;;;;;;5070764;28;8848;-84
2023/09/21 00:57:55;;;;;;;;;2.80;2.80;;;;;;;;5072854;28;8849;-87
2023/09/21 01:00:26;;;;;;;;;4.40;4.40;;;;;;;;5070963;28;8901;-88
2023/09/21 01:02:54;;;;;;;;;3.80;3.80;;;;;;;;5074107;28;8845;-80
2023/09/21 01:05:23;;;;;;;;;5.25;5.25;;;;;;;;5071096;28;8979;-91
2023/09/21 01:07:50;;;;;;;;;8.25;5.75;;;;;;;;5068951;28;8840;-90
2023/09/21 01:10:21;;;;;;;;;8.75;8.25;;;;;;;;5070510;28;8870;-86
2023/09/21 01:12:51;;;;;;;;;8.50;8.50;;;;;;;;5069986;28;8832;-77
2023/09/21 01:15:20;;;;;;;;;7.50;7.50;;;;;;;;5069868;28;8862;-78
2023/09/21 01:17:50;;;;;;;;;7.00;7.00;;;;;;;;5070761;28;8844;-78
2023/09/21 01:20:27;;;;;;;;;9.75;9.75;;;;;;;;5072489;28;8938;-79
2023/09/21 01:23:10;;;;;;;;;13.50;13.00;;;;;;;;5073085;28;8853;-79
2023/09/21 01:25:41;;;;;;;;;19.50;19.50;;;;;;;;5068932;28;8917;-79
2023/09/21 01:28:09;;;;;;;;;19.00;19.00;;;;;;;;5069270;28;9007;-84
2023/09/21 01:30:38;;;;;;;;;19.50;19.50;;;;;;;;5068541;28;8765;-79
2023/09/21 01:33:09;;;;;;;;;25.25;25.25;;;;;;;;5069530;28;8852;-79
2023/09/21 01:35:37;;;;;;;;;20.50;20.50;;;;;;;;5067716;28;8832;-79
2023/09/21 01:38:06;;;;;;;;;19.25;19.25;;;;;;;;5069115;28;8859;-79
2023/09/21 01:40:36;;;;;;;;;15.50;15.50;;;;;;;;5056767;28;8871;-80
2023/09/21 01:43:07;;;;;;;;;16.50;16.50;;;;;;;;5068731;28;8891;-82
2023/09/21 01:45:37;;;;;;;;;10.50;10.50;;;;;;;;5069667;28;8848;-81
2023/09/21 01:48:08;;;;;;;;;4.20;3.40;;;;;;;;5069015;28;8836;-84
2023/09/21 01:50:39;;;;;;;;;4.20;3.40;;;;;;;;5069942;28;8917;-83
2023/09/21 01:53:08;;;;;;;;;4.00;4.00;;;;;;;;5082195;28;8995;-82
2023/09/21 01:55:35;;;;;;;;;4.60;4.60;;;;;;;;5073079;28;8849;-81
2023/09/21 01:58:07;;;;;;;;;2.80;2.80;;;;;;;;5074678;28;8878;-84
2023/09/21 02:00:35;;;;;;;;;4.20;3.80;;;;;;;;5076262;28;8797;-82
2023/09/21 02:03:05;;;;;;;;;3.80;3.80;;;;;;;;5076674;28;8849;-85
2023/09/21 02:05:33;;;;;;;;;4.00;4.00;;;;;;;;5075845;28;8852;-84
2023/09/21 02:08:00;;;;;;;;;4.00;4.00;;;;;;;;5076948;28;8882;-79
2023/09/21 02:10:32;;;;;;;;;5.60;4.80;;;;;;;;5080414;28;8876;-87
2023/09/21 02:13:00;;;;;;;;;1.80;1.80;;;;;;;;5072913;28;8876;-81
2023/09/21 02:15:30;;;;;;;;;2.60;2.60;;;;;;;;5063475;28;8911;-85
2023/09/21 02:17:57;;;;;;;;;4.20;4.20;;;;;;;;5086477;28;8917;-79
2023/09/21 02:20:27;;;;;;;;;3.20;3.20;;;;;;;;5088465;28;8860;-79
2023/09/21 02:23:00;;;;;;;;;3.00;3.00;;;;;;;;5080889;28;8857;-78
2023/09/21 02:25:30;;;;;;;;;2.40;2.40;;;;;;;;5076150;28;9790;-80
2023/09/21 02:27:59;;;;;;;;;3.00;3.00;;;;;;;;5077691;28;8852;-81
2023/09/21 02:30:29;;;;;;;;;4.40;4.40;;;;;;;;5075604;28;8777;-80
2023/09/21 02:32:57;;;;;;;;;3.40;3.40;;;;;;;;5071720;28;8882;-85
2023/09/21 02:35:29;;;;;;;;;3.20;3.20;;;;;;;;5073133;28;8930;-91
2023/09/21 02:37:58;;;;;;;;;2.60;2.60;;;;;;;;5074406;28;8875;-83
2023/09/21 02:40:26;;;;;;;;;3.20;3.20;;;;;;;;5071688;28;9659;-88
2023/09/21 02:42:54;;;;;;;;;3.00;3.00;;;;;;;;5074082;28;8874;-91
2023/09/21 02:45:24;;;;;;;;;5.00;3.00;;;;;;;;5073181;28;8849;-91
2023/09/21 02:47:54;;;;;;;;;3.20;3.20;;;;;;;;5070578;28;8864;-87
2023/09/21 02:50:25;;;;;;;;;3.20;3.20;;;;;;;;5073549;28;8964;-85
2023/09/21 02:52:56;;;;;;;;;3.60;3.60;;;;;;;;5074329;28;8860;-89
2023/09/21 02:55:23;;;;;;;;;3.60;3.60;;;;;;;;5072736;28;9692;-93
2023/09/21 02:57:55;;;;;;;;;4.00;4.00;;;;;;;;5072137;28;8875;-90
2023/09/21 03:00:27;;;;;;;;;6.40;4.00;;;;;;;;5071845;28;8852;-79
2023/09/21 03:02:59;;;;;;;;;3.60;3.60;;;;;;;;5071985;28;8891;-86
2023/09/21 03:05:27;;;;;;;;;3.20;3.20;;;;;;;;5073373;28;8856;-84
2023/09/21 03:07:55;;;;;;;;;3.20;3.20;;;;;;;;5074125;28;8848;-84
2023/09/21 03:10:23;;;;;;;;;5.00;4.00;;;;;;;;5076711;28;8962;-89
2023/09/21 03:12:51;;;;;;;;;4.20;3.00;;;;;;;;5073653;28;8877;-85
2023/09/21 03:15:19;;;;;;;;;4.80;4.80;;;;;;;;5072239;28;8836;-81
2023/09/21 03:17:47;;;;;;;;;4.60;3.20;;;;;;;;5072577;28;8840;-81
2023/09/21 03:20:28;;;;;;;;;4.50;4.50;;;;;;;;5071511;28;8909;-80
2023/09/21 03:22:56;;;;;;;;;4.25;4.25;;;;;;;;5071978;28;8856;-82
2023/09/21 03:25:28;;;;;;;;;2.40;2.40;;;;;;;;5071588;28;8852;-82
2023/09/21 03:27:56;;;;;;;;;3.00;3.00;;;;;;;;5072080;28;8852;-82
2023/09/21 03:30:24;;;;;;;;;5.25;5.25;;;;;;;;5071629;28;8742;-78
2023/09/21 03:32:52;;;;;;;;;3.60;3.60;;;;;;;;5072540;28;8860;-80
2023/09/21 03:35:26;;;;;;;;;3.20;3.20;;;;;;;;5055454;28;9015;-82
2023/09/21 03:37:54;;;;;;;;;3.00;3.00;;;;;;;;5075812;28;8876;-79
2023/09/21 03:40:21;;;;;;;;;3.00;3.00;;;;;;;;5079118;28;8823;-81
2023/09/21 03:42:49;;;;;;;;;3.40;3.40;;;;;;;;5079260;28;8852;-79
2023/09/21 03:45:16;;;;;;;;;5.00;3.80;;;;;;;;5077227;28;8837;-79
2023/09/21 03:47:44;;;;;;;;;3.60;3.60;;;;;;;;5074432;28;8914;-84
2023/09/21 03:50:15;;;;;;;;;2.40;2.40;;;;;;;;5076218;28;8852;-83
2023/09/21 03:52:48;;;;;;;;;6.00;4.20;;;;;;;;5070956;28;8987;-91
2023/09/21 03:55:16;;;;;;;;;3.40;3.40;;;;;;;;5072227;28;8864;-85
2023/09/21 03:57:46;;;;;;;;;3.00;3.00;;;;;;;;5070269;28;8860;-91
2023/09/21 04:00:25;;;;;;;;;2.40;2.40;;;;;;;;5071830;28;8911;-81
2023/09/21 04:02:53;;;;;;;;;4.80;2.00;;;;;;;;5073354;28;8868;-79
2023/09/21 04:05:30;;;;;;;;;3.00;3.00;;;;;;;;5077113;28;8880;-90
2023/09/21 04:07:59;;;;;;;;;2.00;2.00;;;;;;;;5069970;28;8970;-88
2023/09/21 04:10:27;;;;;;;;;2.20;2.20;;;;;;;;5070556;28;9564;-83
2023/09/21 04:12:56;;;;;;;;;2.40;2.40;;;;;;;;5070827;28;8860;-84
2023/09/21 04:15:24;;;;;;;;;3.00;2.40;;;;;;;;5073488;28;8848;-83
2023/09/21 04:17:52;;;;;;;;;2.60;2.60;;;;;;;;5074148;28;8845;-80
2023/09/21 04:20:21;;;;;;;;;2.20;2.20;;;;;;;;5072953;28;8856;-84
2023/09/21 04:22:50;;;;;;;;;3.00;3.00;;;;;;;;5073189;28;9638;-85
2023/09/21 04:25:20;;;;;;;;;3.00;3.00;;;;;;;;5070644;28;8868;-79
2023/09/21 04:27:49;;;;;;;;;2.20;2.20;;;;;;;;5069092;28;9655;-84
2023/09/21 04:30:18;;;;;;;;;6.20;2.60;;;;;;;;5069340;28;8860;-83
2023/09/21 04:32:47;;;;;;;;;2.80;2.80;;;;;;;;5069880;28;8937;-83
2023/09/21 04:35:15;;;;;;;;;5.00;5.00;;;;;;;;5069713;28;8868;-79
2023/09/21 04:37:44;;;;;;;;;2.80;2.80;;;;;;;;5069600;28;9437;-80
2023/09/21 04:40:15;;;;;;;;;2.00;2.00;;;;;;;;5068947;28;8915;-83
2023/09/21 04:42:47;;;;;;;;;3.00;3.00;;;;;;;;5069393;28;9698;-79
2023/09/21 04:45:16;;;;;;;;;2.40;2.40;;;;;;;;5069456;28;8870;-80
2023/09/21 04:47:47;;;;;;;;;3.40;3.40;;;;;;;;5069659;28;8856;-84
2023/09/21 04:50:16;;;;;;;;;2.60;2.60;;;;;;;;5072516;28;9662;-80
2023/09/21 04:52:44;;;;;;;;;3.80;3.80;;;;;;;;5074676;28;8867;-83
2023/09/21 04:55:16;;;;;;;;;3.60;3.60;;;;;;;;5076002;28;8844;-85
2023/09/21 04:57:47;;;;;;;;;3.00;3.00;;;;;;;;5069121;28;8864;-81
2023/09/21 05:00:15;;;;;;;;;2.00;2.00;;;;;;;;5069121;28;8878;-81
2023/09/21 05:02:43;;;;;;;;;3.40;2.40;;;;;;;;5069452;28;8875;-81
2023/09/21 05:05:10;;;;;;;;;3.20;2.00;;;;;;;;5068538;28;8848;-82
2023/09/21 05:07:38;;;;;;;;;2.20;2.20;;;;;;;;5070449;28;8853;-80
2023/09/21 05:10:07;;;;;;;;;1.80;1.80;;;;;;;;5069266;28;8864;-81
2023/09/21 05:12:35;;;;;;;;;4.80;3.20;;;;;;;;5069511;28;8876;-84
2023/09/21 05:15:08;;;;;;;;;3.60;3.00;;;;;;;;5069812;28;8925;-77
2023/09/21 05:17:36;;;;;;;;;2.20;2.20;;;;;;;;5069553;28;8906;-77
2023/09/21 05:20:06;;;;;;;;;2.40;2.40;;;;;;;;5072202;28;8860;-74
2023/09/21 05:22:34;;;;;;;;;2.00;2.00;;;;;;;;5070389;28;8856;-71
2023/09/21 05:25:02;;;;;;;;;3.40;3.40;;;;;;;;5071713;28;8864;-72
2023/09/21 05:27:30;;;;;;;;;2.00;2.00;;;;;;;;5076158;28;8920;-71
2023/09/21 05:29:57;;;;;;;;;3.80;2.20;;;;;;;;5074436;28;9667;-75
2023/09/21 05:32:27;;;;;;;;;3.00;3.00;;;;;;;;5068050;28;8816;-75
2023/09/21 05:34:54;;;;;;;;;1.80;1.80;;;;;;;;5067887;28;8852;-75
2023/09/21 05:37:21;;;;;;;;;3.60;3.60;;;;;;;;5070121;28;8884;-83
2023/09/21 05:39:49;;;;;;;;;2.40;2.00;;;;;;;;5068297;28;8923;-75
2023/09/21 05:42:16;;;;;;;;;2.80;2.80;;;;;;;;5068269;28;8871;-76
2023/09/21 05:44:44;;;;;;;;;3.00;3.00;;;;;;;;5067834;28;9270;-76
2023/09/21 05:47:14;;;;;;;;;4.00;2.60;;;;;;;;5068188;28;8852;-80
2023/09/21 05:49:51;;;;;;;;;2.80;2.80;;;;;;;;5067118;28;8862;-83
2023/09/21 05:52:18;;;;;;;;;3.20;3.20;;;;;;;;5067901;28;8880;-75
2023/09/21 05:54:46;;;;;;;;;2.80;2.80;;;;;;;;5067611;28;8891;-72
2023/09/21 05:57:13;;;;;;;;;1.20;1.20;;;;;;;;5067563;28;8896;-71
2023/09/21 05:59:40;;;;;;;;;2.80;2.80;;;;;;;;5066914;28;8820;-90
2023/09/21 06:02:13;;;;;;;;;2.80;2.80;;;;;;;;5066961;28;8809;-71
2023/09/21 06:04:42;;;;;;;;;2.40;2.40;;;;;;;;5066714;28;8896;-71
2023/09/21 06:07:12;;;;;;;;;4.60;3.60;;;;;;;;5067261;28;8878;-71
2023/09/21 06:09:39;;;;;;;;;3.00;3.00;;;;;;;;5066284;28;8860;-74
2023/09/21 06:12:07;;;;;;;;;5.00;3.60;;;;;;;;5067390;28;8857;-73
2023/09/21 06:14:36;;;;;;;;;2.80;2.80;;;;;;;;5067049;28;8836;-71
2023/09/21 06:17:05;;;;;;;;;3.00;3.00;;;;;;;;5067518;28;8888;-78
2023/09/21 06:19:37;;;;;;;;;3.00;3.00;;;;;;;;5056725;28;8986;-73
2023/09/21 06:22:06;;;;;;;;;3.20;3.20;;;;;;;;5067194;28;8837;-74
2023/09/21 06:24:33;;;;;;;;;2.80;2.80;;;;;;;;5067106;28;8892;-76
2023/09/21 06:27:00;;;;;;;;;4.60;3.40;;;;;;;;5067098;28;8849;-75
2023/09/21 06:29:29;;;;;;;;;5.40;4.00;;;;;;;;5067205;28;8856;-71
2023/09/21 06:32:00;;;;;;;;;3.20;3.20;;;;;;;;5057600;28;8793;-73
2023/09/21 06:34:27;;;;;;;;;4.20;4.20;;;;;;;;5067710;28;8860;-72
2023/09/21 06:36:57;;;;;;;;;4.60;4.60;;;;;;;;5067778;28;8887;-71
2023/09/21 06:39:30;;;;;;;;;5.75;4.25;;;;;;;;5067898;28;8868;-72
2023/09/21 06:41:57;;;;;;;;;4.20;4.20;;;;;;;;5067098;28;8837;-74
2023/09/21 06:44:28;;;;;;;;;5.00;5.00;;;;;;;;5067067;28;8854;-72
2023/09/21 06:46:57;;;;;;;;;4.60;4.60;;;;;;;;5078896;28;8979;-78
2023/09/21 06:49:28;;;;;;;;;5.00;5.00;;;;;;;;5068119;28;8860;-83
2023/09/21 06:51:56;;;;;;;;;5.20;4.00;;;;;;;;5058227;28;8840;-71
2023/09/21 06:54:27;;;;;;;;;4.80;4.80;;;;;;;;5082140;28;8854;-76
2023/09/21 06:57:03;;;;;;;;;6.00;5.00;;;;;;;;5070985;28;8894;-71
2023/09/21 06:59:30;;;;;;;;;3.20;3.20;;;;;;;;5069904;28;8981;-77
2023/09/21 07:01:58;;;;;;;;;4.40;4.40;;;;;;;;5070123;28;8813;-74
2023/09/21 07:04:33;;;;;;;;;4.40;4.40;;;;;;;;5073000;28;8870;-71
2023/09/21 07:07:02;;;;;;;;;5.75;4.00;;;;;;;;5075562;28;9700;-72
2023/09/21 07:09:31;;;;;;;;;4.00;4.00;;;;;;;;5066337;28;8856;-75
2023/09/21 07:11:58;;;;;;;;;4.20;4.20;;;;;;;;5067213;28;8848;-71
2023/09/21 07:14:26;;;;;;;;;3.80;3.00;;;;;;;;5065836;28;8845;-72
2023/09/21 07:16:54;;;;;;;;;2.40;2.40;;;;;;;;5067713;28;8852;-73
2023/09/21 07:19:22;;;;;;;;;3.80;3.80;;;;;;;;5067491;28;9332;-74
2023/09/21 07:21:49;;;;;;;;;4.50;4.50;;;;;;;;5067073;28;8856;-77
2023/09/21 07:24:16;;;;;;;;;6.50;4.75;;;;;;;;5067272;28;8849;-85
2023/09/21 07:26:45;;;;;;;;;4.50;3.25;;;;;;;;5066779;28;8876;-79
2023/09/21 07:29:13;;;;;;;;;4.75;4.25;;;;;;;;5068537;28;8852;-80
2023/09/21 07:31:42;;;;;;;;;4.50;4.50;;;;;;;;5067208;28;8788;-78
2023/09/21 07:34:09;;;;;;;;;3.75;2.00;;;;;;;;5071121;28;8844;-86
2023/09/21 07:36:38;;;;;;;;;4.00;3.25;;;;;;;;5071312;28;8903;-76
2023/09/21 07:39:09;;;;;;;;;3.00;3.00;;;;;;;;5071229;28;9788;-78
2023/09/21 07:41:36;;;;;;;;;3.00;3.00;;;;;;;;5069712;28;8840;-86
2023/09/21 07:44:08;;;;;;;;;3.25;3.25;;;;;;;;5070734;28;8979;-76
2023/09/21 07:46:36;;;;;;;;;3.00;3.00;;;;;;;;5070645;28;8837;-80
2023/09/21 07:49:04;;;;;;;;;2.80;2.80;;;;;;;;5070467;28;8868;-72
2023/09/21 07:51:32;;;;;;;;;3.00;3.00;;;;;;;;5070223;28;8881;-74
2023/09/21 07:54:01;;;;;;;;;3.75;3.75;;;;;;;;5070227;28;8836;-76
2023/09/21 07:56:28;;;;;;;;;4.50;4.50;;;;;;;;5069857;28;8991;-73
2023/09/21 07:58:55;;;;;;;;;4.80;2.80;;;;;;;;5070489;28;8865;-72
2023/09/21 08:01:26;;;;;;;;;3.40;3.40;;;;;;;;5069026;28;8837;-71
2023/09/21 08:03:54;;;;;;;;;2.00;2.00;;;;;;;;5070236;28;9663;-72
2023/09/21 08:06:22;;;;;;;;;3.25;3.25;;;;;;;;5068905;28;8840;-71
2023/09/21 08:08:50;;;;;;;;;2.25;2.25;;;;;;;;5069897;28;8852;-74
2023/09/21 08:11:18;;;;;;;;;5.00;3.40;;;;;;;;5070035;28;8848;-71
2023/09/21 08:13:45;;;;;;;;;4.00;4.00;;;;;;;;5069816;28;9320;-72
2023/09/21 08:16:14;;;;;;;;;2.60;2.60;;;;;;;;5069695;28;8848;-74
2023/09/21 08:18:43;;;;;;;;;4.00;4.00;;;;;;;;5069133;28;8839;-72
2023/09/21 08:21:10;;;;;;;;;1.80;1.80;;;;;;;;5069380;28;8836;-72
2023/09/21 08:23:40;;;;;;;;;3.00;3.00;;;;;;;;5068803;28;9639;-71
2023/09/21 08:26:07;;;;;;;;;3.00;3.00;;;;;;;;5069868;28;8981;-71
2023/09/21 08:28:34;;;;;;;;;4.60;3.20;;;;;;;;5069064;28;8857;-77
2023/09/21 08:31:03;;;;;;;;;3.00;3.00;;;;;;;;5070443;28;8844;-71
2023/09/21 08:33:31;;;;;;;;;1.80;1.80;;;;;;;;5070564;28;8841;-71
2023/09/21 08:35:59;;;;;;;;;4.00;4.00;;;;;;;;5073356;28;8848;-71
2023/09/21 08:38:26;;;;;;;;;2.75;2.75;;;;;;;;5072407;28;8840;-72
2023/09/21 08:40:54;;;;;;;;;2.20;2.20;;;;;;;;5073585;28;8963;-74
2023/09/21 08:43:25;;;;;;;;;3.20;3.00;;;;;;;;5073249;28;8848;-75
2023/09/21 08:45:53;;;;;;;;;1.20;0.00;;;;;;;;5070299;28;8837;-74
2023/09/21 08:48:22;;;;;;;;;4.75;4.75;;;;;;;;5069250;28;8821;-76
2023/09/21 08:50:50;;;;;;;;;4.80;3.00;;;;;;;;5069403;28;8852;-72
2023/09/21 08:53:21;;;;;;;;;1.40;1.40;;;;;;;;5069302;28;9697;-72
2023/09/21 08:55:49;;;;;;;;;2.40;2.20;;;;;;;;5068716;28;8857;-73
2023/09/21 08:58:23;;;;;;;;;2.40;2.00;;;;;;;;5068923;28;8844;-80
2023/09/21 09:00:54;;;;;;;;;1.80;1.80;;;;;;;;5067874;28;8865;-76
2023/09/21 09:03:25;;;;;;;;;3.20;3.20;;;;;;;;5069325;28;8858;-77
2023/09/21 09:05:52;;;;;;;;;2.50;2.50;;;;;;;;5068976;28;8962;-88
2023/09/21 09:08:21;;;;;;;;;3.20;3.20;;;;;;;;5068980;28;8882;-77
2023/09/21 09:10:48;;;;;;;;;1.80;1.80;;;;;;;;5068263;28;8878;-83
2023/09/21 09:13:15;;;;;;;;;1.80;1.80;;;;;;;;5069737;28;8926;-73
2023/09/21 09:15:45;;;;;;;;;3.00;3.00;;;;;;;;5067829;28;8848;-74
2023/09/21 09:18:15;;;;;;;;;2.40;1.80;;;;;;;;5068618;28;8841;-72
2023/09/21 09:20:45;;;;;;;;;3.25;3.25;;;;;;;;5068169;28;8944;-79
2023/09/21 09:23:13;;;;;;;;;3.75;3.75;;;;;;;;5068199;28;8879;-76
2023/09/21 09:25:43;;;;;;;;;12.75;12.00;;;;;;;;5067609;28;8943;-72
2023/09/21 09:28:11;;;;;;;;;18.00;16.50;;;;;;;;5068287;28;8905;-75
2023/09/21 09:30:45;;;;;;;;;9.00;9.00;;;;;;;;5068666;28;8784;-72
2023/09/21 09:33:15;;;;;;;;;13.75;13.75;;;;;;;;5069740;28;8897;-72
2023/09/21 09:35:45;;;;;;;;;0.80;0.80;;;;;;;;5057301;28;9720;-75
2023/09/21 09:38:13;;;;;;;;;2.00;2.00;;;;;;;;5068022;28;8875;-86
2023/09/21 09:40:44;;;;;;;;;1.40;1.40;;;;;;;;5068246;28;8874;-83
2023/09/21 09:43:13;;;;;;;;;2.00;2.00;;;;;;;;5067862;28;9641;-72
2023/09/21 09:45:42;;;;;;;;;0.00;0.00;;;;;;;;5068140;28;9647;-91
2023/09/21 09:48:12;;;;;;;;;0.00;0.00;;;;;;;;5068192;28;9716;-72
2023/09/21 09:50:42;;;;;;;;;0.00;0.00;;;;;;;;5068113;28;8857;-89
2023/09/21 09:53:13;;;;;;;;;1.00;0.00;;;;;;;;5068484;28;8848;-73
2023/09/21 09:55:44;;;;;;;;;0.00;0.00;;;;;;;;5068257;28;8871;-72
2023/09/21 09:58:12;;;;;;;;;0.00;0.00;;;;;;;;5067683;28;8836;-73
2023/09/21 10:00:41;;;;;;;;;0.00;0.00;;;;;;;;5067370;28;8780;-78
2023/09/21 10:03:09;;;;;;;;;1.00;0.00;;;;;;;;5067719;28;8845;-72
2023/09/21 10:05:37;;;;;;;;;0.00;0.00;;;;;;;;5068814;28;8887;-72
2023/09/21 10:08:05;;;;;;;;;0.00;0.00;;;;;;;;5069030;28;8870;-73
2023/09/21 10:10:36;;;;;;;;;0.00;0.00;;;;;;;;5071087;28;9661;-72
2023/09/21 10:13:05;;;;;;;;;0.00;0.00;;;;;;;;5071825;28;8864;-73
2023/09/21 10:15:33;;;;;;;;;0.75;0.00;;;;;;;;5070694;28;8860;-73
2023/09/21 10:18:01;;;;;;;;;0.00;0.00;;;;;;;;5072350;28;8813;-82
2023/09/21 10:20:32;;;;;;;;;2.00;0.75;;;;;;;;5072464;28;8832;-77
2023/09/21 10:23:02;;;;;;;;;0.00;0.00;;;;;;;;5065432;28;8870;-75
2023/09/21 10:25:38;;;;;;;;;0.00;0.00;;;;;;;;5067193;28;8844;-76
2023/09/21 10:28:40;;;;;;;;;0.00;0.00;;;;;;;;5067883;28;8864;-79
2023/09/21 10:31:28;;;;;;;;;0.00;0.00;;;;;;;;4989127;28;8811;-80
2023/09/21 10:34:06;;;;;;;;;1.25;0.00;;;;;;;;5004329;28;8862;-72
2023/09/21 10:36:36;;;;;;;;;0.00;0.00;;;;;;;;5045816;28;8887;-73
2023/09/21 10:39:25;;;;;;;;;0.50;0.00;;;;;;;;5067324;28;8983;-74
2023/09/21 10:41:54;;;;;;;;;0.00;0.00;;;;;;;;5067658;28;8868;-72
2023/09/21 10:45:07;;;;;;;;;0.00;0.00;;;;;;;;5067718;28;8868;-72
2023/09/21 10:47:51;;;;;;;;;0.00;0.00;;;;;;;;5059620;28;8963;-72
2023/09/21 10:50:20;;;;;;;;;0.00;0.00;;;;;;;;5054113;28;8945;-72
2023/09/21 10:52:48;;;;;;;;;0.00;0.00;;;;;;;;5067074;28;8878;-72
2023/09/21 10:55:17;;;;;;;;;0.00;0.00;;;;;;;;5067441;28;8867;-71
2023/09/21 10:57:46;;;;;;;;;0.00;0.00;;;;;;;;5066918;28;8890;-73
2023/09/21 11:00:21;;;;;;;;;0.00;0.00;;;;;;;;5067045;28;8868;-72
2023/09/21 11:02:49;;;;;;;;;0.00;0.00;;;;;;;;5066360;28;9615;-72
2023/09/21 11:05:17;;;;;;;;;0.00;0.00;;;;;;;;5067853;28;8983;-75
2023/09/21 11:07:48;;;;;;;;;0.00;0.00;;;;;;;;5066511;28;8975;-72
2023/09/21 11:10:16;;;;;;;;;0.00;0.00;;;;;;;;5070804;28;8879;-77
2023/09/21 11:12:44;;;;;;;;;0.00;0.00;;;;;;;;5070293;28;8840;-75
2023/09/21 11:15:16;;;;;;;;;0.00;0.00;;;;;;;;5071078;28;8837;-72
2023/09/21 11:17:44;;;;;;;;;0.60;0.00;;;;;;;;5070572;28;8847;-74
2023/09/21 11:20:17;;;;;;;;;0.00;0.00;;;;;;;;5070540;28;8856;-74
2023/09/21 11:22:46;;;;;;;;;1.80;0.00;;;;;;;;5070446;28;9685;-72
2023/09/21 11:25:14;;;;;;;;;0.00;0.00;;;;;;;;5071017;28;8939;-76
2023/09/21 11:27:42;;;;;;;;;0.00;0.00;;;;;;;;5070538;28;8868;-76
2023/09/21 11:30:13;;;;;;;;;0.50;0.00;;;;;;;;5069911;28;8875;-72
2023/09/21 11:32:47;;;;;;;;;0.75;0.00;;;;;;;;5070294;28;9528;-75
2023/09/21 11:35:17;;;;;;;;;0.75;0.00;;;;;;;;5070497;28;9672;-72
2023/09/21 11:37:44;;;;;;;;;0.00;0.00;;;;;;;;5070148;28;8871;-73
2023/09/21 11:40:13;;;;;;;;;0.00;0.00;;;;;;;;5070458;28;8882;-73
2023/09/21 11:42:44;;;;;;;;;0.00;0.00;;;;;;;;5070727;28;8891;-73
2023/09/21 11:45:19;;;;;;;;;0.00;0.00;;;;;;;;5070651;28;8848;-71
2023/09/21 11:47:54;;;;;;;;;0.00;0.00;;;;;;;;5072062;28;8856;-72
2023/09/21 11:50:22;;;;;;;;;0.00;0.00;;;;;;;;5062463;28;8841;-81
2023/09/21 11:52:54;;;;;;;;;0.00;0.00;;;;;;;;5072225;28;8845;-72
2023/09/21 11:55:22;;;;;;;;;0.00;0.00;;;;;;;;5073348;28;8852;-72
2023/09/21 11:57:50;;;;;;;;;0.00;0.00;;;;;;;;5072717;28;8855;-73
2023/09/21 12:00:27;;;;;;;;;0.00;0.00;;;;;;;;5070555;28;9602;-74
2023/09/21 12:02:57;;;;;;;;;1.25;1.00;;;;;;;;5070206;28;8871;-78
2023/09/21 12:05:26;;;;;;;;;0.75;0.00;;;;;;;;5070698;28;8879;-80
2023/09/21 12:07:56;;;;;;;;;0.00;0.00;;;;;;;;5070371;28;8883;-72
2023/09/21 12:10:25;;;;;;;;;0.00;0.00;;;;;;;;5070249;28;8859;-72
2023/09/21 12:12:53;;;;;;;;;0.20;0.00;;;;;;;;5068559;28;8925;-74
2023/09/21 12:15:20;;;;;;;;;0.00;0.00;;;;;;;;5070182;28;8852;-73
2023/09/21 12:17:48;;;;;;;;;1.20;0.40;;;;;;;;5069725;28;8860;-74
2023/09/21 12:20:18;;;;;;;;;1.00;0.00;;;;;;;;5069563;28;8871;-72
2023/09/21 12:22:45;;;;;;;;;0.00;0.00;;;;;;;;5069490;28;9387;-75
2023/09/21 12:25:14;;;;;;;;;0.00;0.00;;;;;;;;5069544;28;8844;-79
2023/09/21 12:27:45;;;;;;;;;0.00;0.00;;;;;;;;5070338;28;8860;-82
2023/09/21 12:30:14;;;;;;;;;0.00;0.00;;;;;;;;5069289;28;8836;-72
2023/09/21 12:32:49;;;;;;;;;0.00;0.00;;;;;;;;5069701;28;8856;-83
2023/09/21 12:35:19;;;;;;;;;1.50;0.00;;;;;;;;5068908;28;8849;-72
2023/09/21 12:37:46;;;;;;;;;0.00;0.00;;;;;;;;5069278;28;8855;-71
2023/09/21 12:40:15;;;;;;;;;0.00;0.00;;;;;;;;5068752;28;8833;-72
2023/09/21 12:42:43;;;;;;;;;0.50;0.00;;;;;;;;5069173;28;8856;-72
2023/09/21 12:45:12;;;;;;;;;0.25;0.00;;;;;;;;5068892;28;8832;-72
2023/09/21 12:47:39;;;;;;;;;0.00;0.00;;;;;;;;5068725;28;9690;-72
2023/09/21 12:50:08;;;;;;;;;0.00;0.00;;;;;;;;5068696;28;8863;-72
2023/09/21 12:52:36;;;;;;;;;0.00;0.00;;;;;;;;5069098;28;8844;-71
2023/09/21 12:55:05;;;;;;;;;0.00;0.00;;;;;;;;5068970;28;8864;-72
2023/09/21 12:57:34;;;;;;;;;0.75;0.00;;;;;;;;5068252;28;8845;-76
2023/09/21 13:00:01;;;;;;;;;0.00;0.00;;;;;;;;5057191;28;8981;-72
2023/09/21 13:02:28;;;;;;;;;0.00;0.00;;;;;;;;5067289;28;8805;-72
2023/09/21 13:04:57;;;;;;;;;0.00;0.00;;;;;;;;5068705;28;8931;-72
2023/09/21 13:07:24;;;;;;;;;0.00;0.00;;;;;;;;5068279;28;8945;-71
2023/09/21 13:09:53;;;;;;;;;0.75;0.00;;;;;;;;5069422;28;8860;-71
2023/09/21 13:12:20;;;;;;;;;0.00;0.00;;;;;;;;5068430;28;8856;-72
2023/09/21 13:14:49;;;;;;;;;0.00;0.00;;;;;;;;5068518;28;9631;-72
2023/09/21 13:17:21;;;;;;;;;0.00;0.00;;;;;;;;5068839;28;8831;-72
2023/09/21 13:19:48;;;;;;;;;0.00;0.00;;;;;;;;5068739;28;8848;-72
2023/09/21 13:22:16;;;;;;;;;0.00;0.00;;;;;;;;5069079;28;8883;-74
2023/09/21 13:24:44;;;;;;;;;0.00;0.00;;;;;;;;5069908;28;8844;-72
2023/09/21 13:27:13;;;;;;;;;0.00;0.00;;;;;;;;5070277;28;8837;-76
2023/09/21 13:29:40;;;;;;;;;0.00;0.00;;;;;;;;5069996;28;8876;-73
2023/09/21 13:32:08;;;;;;;;;0.00;0.00;;;;;;;;5069399;28;8883;-72
2023/09/21 13:34:35;;;;;;;;;0.00;0.00;;;;;;;;5071283;28;8935;-75
2023/09/21 13:37:05;;;;;;;;;0.00;0.00;;;;;;;;5070085;28;9611;-72
2023/09/21 13:39:33;;;;;;;;;1.00;0.00;;;;;;;;5068177;28;8862;-72
2023/09/21 13:42:00;;;;;;;;;0.00;0.00;;;;;;;;5068038;28;9214;-72
2023/09/21 13:44:29;;;;;;;;;0.00;0.00;;;;;;;;5067809;28;8840;-73
2023/09/21 13:46:57;;;;;;;;;1.25;0.00;;;;;;;;5079659;28;8840;-72
2023/09/21 13:49:25;;;;;;;;;1.00;1.00;;;;;;;;5067052;28;8875;-72
2023/09/21 13:51:53;;;;;;;;;0.00;0.00;;;;;;;;5068406;28;8871;-71
2023/09/21 13:54:20;;;;;;;;;1.00;0.50;;;;;;;;5067723;28;8840;-71
2023/09/21 13:56:48;;;;;;;;;0.00;0.00;;;;;;;;5067932;28;8871;-72
2023/09/21 13:59:15;;;;;;;;;0.00;0.00;;;;;;;;5067335;28;8957;-72
2023/09/21 14:01:44;;;;;;;;;0.00;0.00;;;;;;;;5067279;28;8855;-72
2023/09/21 14:04:11;;;;;;;;;0.75;0.75;;;;;;;;5067253;28;8874;-71
2023/09/21 14:06:38;;;;;;;;;0.75;0.75;;;;;;;;5067764;28;8875;-71
2023/09/21 14:09:07;;;;;;;;;0.00;0.00;;;;;;;;5067131;28;8827;-74
2023/09/21 14:11:37;;;;;;;;;0.75;0.75;;;;;;;;5067639;28;8864;-72
2023/09/21 14:14:04;;;;;;;;;1.00;1.00;;;;;;;;5067512;28;8844;-72
2023/09/21 14:16:32;;;;;;;;;1.00;1.00;;;;;;;;5067714;28;8860;-71
2023/09/21 14:19:00;;;;;;;;;1.50;1.50;;;;;;;;5065893;28;8860;-75
2023/09/21 14:21:28;;;;;;;;;1.00;1.00;;;;;;;;5067070;28;9661;-74
2023/09/21 14:23:56;;;;;;;;;1.25;0.75;;;;;;;;5067308;28;8840;-71
2023/09/21 14:26:24;;;;;;;;;2.25;2.25;;;;;;;;5067646;28;8860;-72
2023/09/21 14:28:51;;;;;;;;;0.75;0.75;;;;;;;;5067563;28;8856;-75
2023/09/21 14:31:19;;;;;;;;;2.25;1.75;;;;;;;;5056096;28;8787;-72
2023/09/21 14:33:46;;;;;;;;;3.25;2.00;;;;;;;;5057177;28;8856;-72
2023/09/21 14:36:14;;;;;;;;;1.75;1.75;;;;;;;;5067192;28;8852;-76
2023/09/21 14:38:44;;;;;;;;;1.25;1.25;;;;;;;;5067087;28;8864;-73
2023/09/21 14:41:12;;;;;;;;;1.00;1.00;;;;;;;;5079324;28;8868;-72
2023/09/21 14:43:39;;;;;;;;;0.75;0.75;;;;;;;;5068579;28;8886;-71
2023/09/21 14:46:09;;;;;;;;;1.00;1.00;;;;;;;;5071102;28;8860;-71
2023/09/21 14:48:38;;;;;;;;;1.00;1.00;;;;;;;;5070206;28;8863;-72
2023/09/21 14:51:05;;;;;;;;;2.25;1.50;;;;;;;;5071576;28;8879;-73
2023/09/21 14:53:34;;;;;;;;;1.00;1.00;;;;;;;;5070952;28;8856;-72
2023/09/21 14:56:03;;;;;;;;;1.00;1.00;;;;;;;;5071316;28;8928;-71
2023/09/21 14:58:31;;;;;;;;;1.00;1.00;;;;;;;;5071517;28;9622;-77
2023/09/21 15:00:58;;;;;;;;;1.75;1.75;;;;;;;;5070535;28;8776;-72
2023/09/21 15:03:27;;;;;;;;;0.50;0.50;;;;;;;;5072170;28;8878;-71
2023/09/21 15:05:54;;;;;;;;;0.75;0.75;;;;;;;;5073824;28;8852;-76
2023/09/21 15:08:22;;;;;;;;;0.75;0.75;;;;;;;;5073718;28;8975;-72